sensor_id;sensor_type;location;lat;lon;timestamp;P1;durP1;ratioP1;P2;durP2;ratioP2
68942;SDS011;60852;52.190;4.422;2023-02-26T00:01:24;2.40;;;1.97;;
68942;SDS011;60852;52.190;4.422;2023-02-26T00:03:54;2.54;;;2.06;;
68942;SDS011;60852;52.190;4.422;2023-02-26T00:06:22;2.60;;;2.09;;
68942;SDS011;60852;52.190;4.422;2023-02-26T00:08:49;2.68;;;2.18;;
68942;SDS011;60852;52.190;4.422;2023-02-26T00:11:14;2.79;;;2.23;;
68942;SDS011;60852;52.190;4.422;2023-02-26T00:13:40;3.22;;;2.52;;
68942;SDS011;60852;52.190;4.422;2023-02-26T00:16:20;3.45;;;2.67;;
68942;SDS011;60852;52.190;4.422;2023-02-26T00:18:52;4.23;;;3.23;;
68942;SDS011;60852;52.190;4.422;2023-02-26T00:21:19;3.97;;;2.99;;
68942;SDS011;60852;52.190;4.422;2023-02-26T00:23:47;4.16;;;3.12;;
68942;SDS011;60852;52.190;4.422;2023-02-26T00:26:13;4.05;;;3.00;;
68942;SDS011;60852;52.190;4.422;2023-02-26T00:28:39;4.52;;;3.30;;
68942;SDS011;60852;52.190;4.422;2023-02-26T00:31:05;5.14;;;3.68;;
68942;SDS011;60852;52.190;4.422;2023-02-26T00:33:31;5.00;;;3.61;;
68942;SDS011;60852;52.190;4.422;2023-02-26T00:36:02;4.86;;;3.44;;
68942;SDS011;60852;52.190;4.422;2023-02-26T00:38:37;5.76;;;4.07;;
68942;SDS011;60852;52.190;4.422;2023-02-26T00:41:11;5.64;;;4.08;;
68942;SDS011;60852;52.190;4.422;2023-02-26T00:43:36;4.95;;;3.62;;
68942;SDS011;60852;52.190;4.422;2023-02-26T00:46:09;4.54;;;3.31;;
68942;SDS011;60852;52.190;4.422;2023-02-26T00:51:48;3.56;;;2.59;;
68942;SDS011;60852;52.190;4.422;2023-02-26T00:56:55;3.26;;;2.40;;
68942;SDS011;60852;52.190;4.422;2023-02-26T00:59:23;3.31;;;2.45;;
68942;SDS011;60852;52.190;4.422;2023-02-26T01:01:50;3.16;;;2.38;;
68942;SDS011;60852;52.190;4.422;2023-02-26T01:04:18;2.68;;;2.06;;
68942;SDS011;60852;52.190;4.422;2023-02-26T01:06:47;2.51;;;1.94;;
68942;SDS011;60852;52.190;4.422;2023-02-26T01:11:52;3.09;;;2.39;;
68942;SDS011;60852;52.190;4.422;2023-02-26T01:14:20;3.39;;;2.63;;
68942;SDS011;60852;52.190;4.422;2023-02-26T01:16:49;3.01;;;2.33;;
68942;SDS011;60852;52.190;4.422;2023-02-26T01:22:20;3.17;;;2.47;;
68942;SDS011;60852;52.190;4.422;2023-02-26T01:24:53;3.10;;;2.36;;
68942;SDS011;60852;52.190;4.422;2023-02-26T01:27:26;3.06;;;2.35;;
68942;SDS011;60852;52.190;4.422;2023-02-26T01:29:53;3.48;;;2.65;;
68942;SDS011;60852;52.190;4.422;2023-02-26T01:34:56;3.02;;;2.35;;
68942;SDS011;60852;52.190;4.422;2023-02-26T01:40:00;3.20;;;2.42;;
68942;SDS011;60852;52.190;4.422;2023-02-26T01:42:49;2.90;;;2.16;;
68942;SDS011;60852;52.190;4.422;2023-02-26T01:45:25;3.13;;;2.28;;
68942;SDS011;60852;52.190;4.422;2023-02-26T01:48:06;3.40;;;2.41;;
68942;SDS011;60852;52.190;4.422;2023-02-26T01:50:42;3.91;;;2.70;;
68942;SDS011;60852;52.190;4.422;2023-02-26T01:53:16;3.48;;;2.47;;
68942;SDS011;60852;52.190;4.422;2023-02-26T01:55:49;3.75;;;2.67;;
68942;SDS011;60852;52.190;4.422;2023-02-26T01:58:25;3.16;;;2.24;;
68942;SDS011;60852;52.190;4.422;2023-02-26T02:00:56;3.11;;;2.20;;
68942;SDS011;60852;52.190;4.422;2023-02-26T02:03:21;3.95;;;2.79;;
68942;SDS011;60852;52.190;4.422;2023-02-26T02:05:51;3.27;;;2.27;;
68942;SDS011;60852;52.190;4.422;2023-02-26T02:08:22;3.69;;;2.55;;
68942;SDS011;60852;52.190;4.422;2023-02-26T02:10:49;3.66;;;2.59;;
68942;SDS011;60852;52.190;4.422;2023-02-26T02:13:30;3.58;;;2.55;;
68942;SDS011;60852;52.190;4.422;2023-02-26T02:28:05;4.04;;;3.13;;
68942;SDS011;60852;52.190;4.422;2023-02-26T02:33:30;3.09;;;2.31;;
68942;SDS011;60852;52.190;4.422;2023-02-26T02:39:00;4.20;;;3.15;;
68942;SDS011;60852;52.190;4.422;2023-02-26T02:41:37;3.65;;;2.77;;
68942;SDS011;60852;52.190;4.422;2023-02-26T02:44:09;4.36;;;3.44;;
68942;SDS011;60852;52.190;4.422;2023-02-26T02:46:39;3.54;;;2.92;;
68942;SDS011;60852;52.190;4.422;2023-02-26T02:49:17;3.32;;;2.78;;
68942;SDS011;60852;52.190;4.422;2023-02-26T02:51:54;3.36;;;2.85;;
68942;SDS011;60852;52.190;4.422;2023-02-26T02:54:40;3.42;;;2.96;;
68942;SDS011;60852;52.190;4.422;2023-02-26T02:57:13;3.84;;;3.34;;
68942;SDS011;60852;52.190;4.422;2023-02-26T02:59:46;3.86;;;3.28;;
68942;SDS011;60852;52.190;4.422;2023-02-26T03:04:55;3.07;;;2.57;;
68942;SDS011;60852;52.190;4.422;2023-02-26T03:07:21;2.97;;;2.39;;
68942;SDS011;60852;52.190;4.422;2023-02-26T03:09:47;3.15;;;2.47;;
68942;SDS011;60852;52.190;4.422;2023-02-26T03:12:12;3.28;;;2.56;;
68942;SDS011;60852;52.190;4.422;2023-02-26T03:14:38;3.65;;;2.84;;
68942;SDS011;60852;52.190;4.422;2023-02-26T03:20:18;3.17;;;2.41;;
68942;SDS011;60852;52.190;4.422;2023-02-26T03:28:37;3.53;;;2.46;;
68942;SDS011;60852;52.190;4.422;2023-02-26T03:31:14;3.96;;;2.79;;
68942;SDS011;60852;52.190;4.422;2023-02-26T03:33:59;3.44;;;2.42;;
68942;SDS011;60852;52.190;4.422;2023-02-26T03:36:53;3.51;;;2.44;;
68942;SDS011;60852;52.190;4.422;2023-02-26T03:39:47;3.43;;;2.37;;
68942;SDS011;60852;52.190;4.422;2023-02-26T03:42:16;3.85;;;2.66;;
68942;SDS011;60852;52.190;4.422;2023-02-26T03:44:59;3.10;;;2.15;;
68942;SDS011;60852;52.190;4.422;2023-02-26T03:47:35;3.73;;;2.58;;
68942;SDS011;60852;52.190;4.422;2023-02-26T03:50:15;3.37;;;2.37;;
68942;SDS011;60852;52.190;4.422;2023-02-26T03:52:48;3.61;;;2.51;;
68942;SDS011;60852;52.190;4.422;2023-02-26T03:55:22;3.80;;;2.63;;
68942;SDS011;60852;52.190;4.422;2023-02-26T03:58:00;3.38;;;2.33;;
68942;SDS011;60852;52.190;4.422;2023-02-26T04:00:26;3.52;;;2.43;;
68942;SDS011;60852;52.190;4.422;2023-02-26T04:03:00;3.80;;;2.61;;
68942;SDS011;60852;52.190;4.422;2023-02-26T04:05:34;3.83;;;2.62;;
68942;SDS011;60852;52.190;4.422;2023-02-26T04:08:05;3.80;;;2.61;;
68942;SDS011;60852;52.190;4.422;2023-02-26T04:10:41;3.88;;;2.61;;
68942;SDS011;60852;52.190;4.422;2023-02-26T04:13:11;4.61;;;3.03;;
68942;SDS011;60852;52.190;4.422;2023-02-26T04:15:37;4.18;;;2.72;;
68942;SDS011;60852;52.190;4.422;2023-02-26T04:18:03;4.05;;;2.65;;
68942;SDS011;60852;52.190;4.422;2023-02-26T04:20:29;3.63;;;2.41;;
68942;SDS011;60852;52.190;4.422;2023-02-26T04:22:55;3.99;;;2.66;;
68942;SDS011;60852;52.190;4.422;2023-02-26T04:25:20;4.01;;;2.70;;
68942;SDS011;60852;52.190;4.422;2023-02-26T04:27:46;3.58;;;2.48;;
68942;SDS011;60852;52.190;4.422;2023-02-26T04:30:11;3.47;;;2.46;;
68942;SDS011;60852;52.190;4.422;2023-02-26T04:32:37;3.31;;;2.39;;
68942;SDS011;60852;52.190;4.422;2023-02-26T04:35:02;2.91;;;2.14;;
68942;SDS011;60852;52.190;4.422;2023-02-26T04:37:28;2.98;;;2.19;;
68942;SDS011;60852;52.190;4.422;2023-02-26T04:39:53;3.46;;;2.53;;
68942;SDS011;60852;52.190;4.422;2023-02-26T04:42:19;3.43;;;2.46;;
68942;SDS011;60852;52.190;4.422;2023-02-26T04:44:44;3.26;;;2.28;;
68942;SDS011;60852;52.190;4.422;2023-02-26T04:47:10;3.06;;;2.18;;
68942;SDS011;60852;52.190;4.422;2023-02-26T04:49:35;3.19;;;2.31;;
68942;SDS011;60852;52.190;4.422;2023-02-26T04:52:00;3.16;;;2.29;;
68942;SDS011;60852;52.190;4.422;2023-02-26T04:54:26;3.41;;;2.43;;
68942;SDS011;60852;52.190;4.422;2023-02-26T04:56:51;3.25;;;2.31;;
68942;SDS011;60852;52.190;4.422;2023-02-26T04:59:17;3.23;;;2.32;;
68942;SDS011;60852;52.190;4.422;2023-02-26T05:01:42;3.26;;;2.35;;
68942;SDS011;60852;52.190;4.422;2023-02-26T05:04:08;3.01;;;2.13;;
68942;SDS011;60852;52.190;4.422;2023-02-26T05:06:33;3.11;;;2.22;;
68942;SDS011;60852;52.190;4.422;2023-02-26T05:08:59;2.89;;;2.10;;
68942;SDS011;60852;52.190;4.422;2023-02-26T05:11:24;3.29;;;2.36;;
68942;SDS011;60852;52.190;4.422;2023-02-26T05:13:49;3.14;;;2.24;;
68942;SDS011;60852;52.190;4.422;2023-02-26T05:16:15;3.44;;;2.43;;
68942;SDS011;60852;52.190;4.422;2023-02-26T05:18:40;3.10;;;2.22;;
68942;SDS011;60852;52.190;4.422;2023-02-26T05:21:06;2.94;;;2.09;;
68942;SDS011;60852;52.190;4.422;2023-02-26T05:23:32;3.22;;;2.27;;
68942;SDS011;60852;52.190;4.422;2023-02-26T05:25:57;3.23;;;2.23;;
68942;SDS011;60852;52.190;4.422;2023-02-26T05:28:23;3.38;;;2.31;;
68942;SDS011;60852;52.190;4.422;2023-02-26T05:30:50;3.30;;;2.27;;
68942;SDS011;60852;52.190;4.422;2023-02-26T05:33:15;3.10;;;2.13;;
68942;SDS011;60852;52.190;4.422;2023-02-26T05:35:41;3.18;;;2.18;;
68942;SDS011;60852;52.190;4.422;2023-02-26T05:38:06;3.71;;;2.53;;
68942;SDS011;60852;52.190;4.422;2023-02-26T05:40:32;3.07;;;2.08;;
68942;SDS011;60852;52.190;4.422;2023-02-26T05:42:58;3.34;;;2.26;;
68942;SDS011;60852;52.190;4.422;2023-02-26T05:45:23;2.92;;;1.97;;
68942;SDS011;60852;52.190;4.422;2023-02-26T05:47:48;3.25;;;2.22;;
68942;SDS011;60852;52.190;4.422;2023-02-26T05:50:14;3.28;;;2.25;;
68942;SDS011;60852;52.190;4.422;2023-02-26T05:52:40;2.93;;;2.04;;
68942;SDS011;60852;52.190;4.422;2023-02-26T05:55:05;3.08;;;2.14;;
68942;SDS011;60852;52.190;4.422;2023-02-26T05:57:32;3.68;;;2.54;;
68942;SDS011;60852;52.190;4.422;2023-02-26T05:59:57;2.99;;;2.08;;
68942;SDS011;60852;52.190;4.422;2023-02-26T06:02:22;3.27;;;2.25;;
68942;SDS011;60852;52.190;4.422;2023-02-26T06:04:48;3.47;;;2.42;;
68942;SDS011;60852;52.190;4.422;2023-02-26T06:07:13;3.14;;;2.16;;
68942;SDS011;60852;52.190;4.422;2023-02-26T06:09:39;3.03;;;2.09;;
68942;SDS011;60852;52.190;4.422;2023-02-26T06:12:05;2.87;;;2.00;;
68942;SDS011;60852;52.190;4.422;2023-02-26T06:14:31;3.29;;;2.27;;
68942;SDS011;60852;52.190;4.422;2023-02-26T06:16:57;3.48;;;2.40;;
68942;SDS011;60852;52.190;4.422;2023-02-26T06:19:22;3.25;;;2.22;;
68942;SDS011;60852;52.190;4.422;2023-02-26T06:21:48;3.56;;;2.41;;
68942;SDS011;60852;52.190;4.422;2023-02-26T06:24:13;3.70;;;2.50;;
68942;SDS011;60852;52.190;4.422;2023-02-26T06:26:39;2.97;;;2.02;;
68942;SDS011;60852;52.190;4.422;2023-02-26T06:29:04;3.12;;;2.14;;
68942;SDS011;60852;52.190;4.422;2023-02-26T06:31:30;3.11;;;2.12;;
68942;SDS011;60852;52.190;4.422;2023-02-26T06:33:55;3.92;;;2.62;;
68942;SDS011;60852;52.190;4.422;2023-02-26T06:36:21;3.56;;;2.35;;
68942;SDS011;60852;52.190;4.422;2023-02-26T06:38:46;3.39;;;2.28;;
68942;SDS011;60852;52.190;4.422;2023-02-26T06:41:12;3.38;;;2.29;;
68942;SDS011;60852;52.190;4.422;2023-02-26T06:43:38;2.93;;;2.01;;
68942;SDS011;60852;52.190;4.422;2023-02-26T06:46:03;2.86;;;1.98;;
68942;SDS011;60852;52.190;4.422;2023-02-26T06:48:29;3.03;;;2.08;;
68942;SDS011;60852;52.190;4.422;2023-02-26T06:50:54;2.92;;;2.03;;
68942;SDS011;60852;52.190;4.422;2023-02-26T06:53:20;3.28;;;2.29;;
68942;SDS011;60852;52.190;4.422;2023-02-26T06:55:46;2.85;;;2.01;;
68942;SDS011;60852;52.190;4.422;2023-02-26T06:58:15;3.35;;;2.40;;
68942;SDS011;60852;52.190;4.422;2023-02-26T07:00:41;5.54;;;4.30;;
68942;SDS011;60852;52.190;4.422;2023-02-26T07:03:09;3.38;;;2.82;;
68942;SDS011;60852;52.190;4.422;2023-02-26T07:05:37;2.75;;;2.21;;
68942;SDS011;60852;52.190;4.422;2023-02-26T07:08:03;3.03;;;2.41;;
68942;SDS011;60852;52.190;4.422;2023-02-26T07:10:30;3.69;;;2.95;;
68942;SDS011;60852;52.190;4.422;2023-02-26T07:12:59;2.43;;;1.92;;
68942;SDS011;60852;52.190;4.422;2023-02-26T07:15:25;2.78;;;2.13;;
68942;SDS011;60852;52.190;4.422;2023-02-26T07:17:50;2.73;;;2.02;;
68942;SDS011;60852;52.190;4.422;2023-02-26T07:20:16;3.12;;;2.30;;
68942;SDS011;60852;52.190;4.422;2023-02-26T07:22:42;3.46;;;2.59;;
68942;SDS011;60852;52.190;4.422;2023-02-26T07:25:09;3.08;;;2.32;;
68942;SDS011;60852;52.190;4.422;2023-02-26T07:27:36;3.49;;;2.63;;
68942;SDS011;60852;52.190;4.422;2023-02-26T07:30:03;3.48;;;2.62;;
68942;SDS011;60852;52.190;4.422;2023-02-26T07:32:30;3.72;;;2.88;;
68942;SDS011;60852;52.190;4.422;2023-02-26T07:34:56;2.91;;;2.35;;
68942;SDS011;60852;52.190;4.422;2023-02-26T07:37:22;3.03;;;2.50;;
68942;SDS011;60852;52.190;4.422;2023-02-26T07:39:48;2.96;;;2.40;;
68942;SDS011;60852;52.190;4.422;2023-02-26T07:42:14;2.60;;;2.11;;
68942;SDS011;60852;52.190;4.422;2023-02-26T07:44:39;2.78;;;2.27;;
68942;SDS011;60852;52.190;4.422;2023-02-26T07:47:04;2.66;;;2.17;;
68942;SDS011;60852;52.190;4.422;2023-02-26T07:49:30;2.77;;;2.27;;
68942;SDS011;60852;52.190;4.422;2023-02-26T07:51:58;2.68;;;2.17;;
68942;SDS011;60852;52.190;4.422;2023-02-26T07:54:24;2.92;;;2.30;;
68942;SDS011;60852;52.190;4.422;2023-02-26T07:56:50;3.08;;;2.37;;
68942;SDS011;60852;52.190;4.422;2023-02-26T07:59:15;3.20;;;2.51;;
68942;SDS011;60852;52.190;4.422;2023-02-26T08:01:41;3.14;;;2.44;;
68942;SDS011;60852;52.190;4.422;2023-02-26T08:04:06;3.14;;;2.39;;
68942;SDS011;60852;52.190;4.422;2023-02-26T08:06:31;3.33;;;2.56;;
68942;SDS011;60852;52.190;4.422;2023-02-26T08:08:58;3.44;;;2.61;;
68942;SDS011;60852;52.190;4.422;2023-02-26T08:11:24;3.02;;;2.29;;
68942;SDS011;60852;52.190;4.422;2023-02-26T08:13:49;3.18;;;2.42;;
68942;SDS011;60852;52.190;4.422;2023-02-26T08:16:14;2.88;;;2.22;;
68942;SDS011;60852;52.190;4.422;2023-02-26T08:18:40;2.91;;;2.27;;
68942;SDS011;60852;52.190;4.422;2023-02-26T08:21:06;2.67;;;2.11;;
68942;SDS011;60852;52.190;4.422;2023-02-26T08:23:31;2.83;;;2.23;;
68942;SDS011;60852;52.190;4.422;2023-02-26T08:26:01;2.56;;;2.02;;
68942;SDS011;60852;52.190;4.422;2023-02-26T08:28:31;2.66;;;2.09;;
68942;SDS011;60852;52.190;4.422;2023-02-26T08:30:57;2.65;;;2.07;;
68942;SDS011;60852;52.190;4.422;2023-02-26T08:33:23;2.83;;;2.20;;
68942;SDS011;60852;52.190;4.422;2023-02-26T08:35:49;2.60;;;2.04;;
68942;SDS011;60852;52.190;4.422;2023-02-26T08:38:16;2.39;;;1.88;;
68942;SDS011;60852;52.190;4.422;2023-02-26T08:40:42;2.62;;;2.10;;
68942;SDS011;60852;52.190;4.422;2023-02-26T08:43:07;2.54;;;1.99;;
68942;SDS011;60852;52.190;4.422;2023-02-26T08:45:33;2.63;;;2.05;;
68942;SDS011;60852;52.190;4.422;2023-02-26T08:47:59;2.90;;;2.24;;
68942;SDS011;60852;52.190;4.422;2023-02-26T08:50:25;2.27;;;1.81;;
68942;SDS011;60852;52.190;4.422;2023-02-26T08:52:51;2.37;;;1.94;;
68942;SDS011;60852;52.190;4.422;2023-02-26T08:55:17;2.41;;;1.96;;
68942;SDS011;60852;52.190;4.422;2023-02-26T08:57:42;2.17;;;1.78;;
68942;SDS011;60852;52.190;4.422;2023-02-26T09:00:08;2.09;;;1.70;;
68942;SDS011;60852;52.190;4.422;2023-02-26T09:02:37;2.11;;;1.71;;
68942;SDS011;60852;52.190;4.422;2023-02-26T09:05:03;1.88;;;1.51;;
68942;SDS011;60852;52.190;4.422;2023-02-26T09:07:29;2.00;;;1.55;;
68942;SDS011;60852;52.190;4.422;2023-02-26T09:09:55;1.85;;;1.41;;
68942;SDS011;60852;52.190;4.422;2023-02-26T09:12:20;2.63;;;1.98;;
68942;SDS011;60852;52.190;4.422;2023-02-26T09:14:45;2.25;;;1.66;;
68942;SDS011;60852;52.190;4.422;2023-02-26T09:17:11;2.11;;;1.54;;
68942;SDS011;60852;52.190;4.422;2023-02-26T09:19:36;2.28;;;1.64;;
68942;SDS011;60852;52.190;4.422;2023-02-26T09:22:02;2.60;;;1.84;;
68942;SDS011;60852;52.190;4.422;2023-02-26T09:24:28;2.43;;;1.72;;
68942;SDS011;60852;52.190;4.422;2023-02-26T09:26:54;2.26;;;1.58;;
68942;SDS011;60852;52.190;4.422;2023-02-26T09:29:19;2.38;;;1.66;;
68942;SDS011;60852;52.190;4.422;2023-02-26T09:31:44;2.12;;;1.48;;
68942;SDS011;60852;52.190;4.422;2023-02-26T09:34:10;2.45;;;1.68;;
68942;SDS011;60852;52.190;4.422;2023-02-26T09:36:36;2.34;;;1.59;;
68942;SDS011;60852;52.190;4.422;2023-02-26T09:39:03;3.00;;;2.06;;
68942;SDS011;60852;52.190;4.422;2023-02-26T09:41:34;2.44;;;1.71;;
68942;SDS011;60852;52.190;4.422;2023-02-26T09:47:02;2.33;;;1.72;;
68942;SDS011;60852;52.190;4.422;2023-02-26T09:52:16;2.05;;;1.52;;
68942;SDS011;60852;52.190;4.422;2023-02-26T09:54:55;1.93;;;1.42;;
68942;SDS011;60852;52.190;4.422;2023-02-26T09:57:30;2.55;;;1.82;;
68942;SDS011;60852;52.190;4.422;2023-02-26T09:59:58;2.34;;;1.65;;
68942;SDS011;60852;52.190;4.422;2023-02-26T10:05:17;2.77;;;1.95;;
68942;SDS011;60852;52.190;4.422;2023-02-26T10:10:25;2.14;;;1.52;;
68942;SDS011;60852;52.190;4.422;2023-02-26T10:13:23;1.99;;;1.44;;
68942;SDS011;60852;52.190;4.422;2023-02-26T10:16:11;1.76;;;1.29;;
68942;SDS011;60852;52.190;4.422;2023-02-26T10:18:47;2.20;;;1.60;;
68942;SDS011;60852;52.190;4.422;2023-02-26T10:21:41;2.09;;;1.49;;
68942;SDS011;60852;52.190;4.422;2023-02-26T10:24:12;2.16;;;1.53;;
68942;SDS011;60852;52.190;4.422;2023-02-26T10:26:49;2.17;;;1.55;;
68942;SDS011;60852;52.190;4.422;2023-02-26T10:29:21;1.84;;;1.32;;
68942;SDS011;60852;52.190;4.422;2023-02-26T10:32:11;2.44;;;1.74;;
68942;SDS011;60852;52.190;4.422;2023-02-26T10:35:08;2.08;;;1.52;;
68942;SDS011;60852;52.190;4.422;2023-02-26T10:42:52;2.05;;;1.50;;
68942;SDS011;60852;52.190;4.422;2023-02-26T10:48:32;2.14;;;1.53;;
68942;SDS011;60852;52.190;4.422;2023-02-26T10:51:08;1.69;;;1.23;;
68942;SDS011;60852;52.190;4.422;2023-02-26T10:53:38;1.95;;;1.44;;
68942;SDS011;60852;52.190;4.422;2023-02-26T10:56:16;2.38;;;1.72;;
68942;SDS011;60852;52.190;4.422;2023-02-26T10:58:48;2.08;;;1.49;;
68942;SDS011;60852;52.190;4.422;2023-02-26T11:01:16;1.88;;;1.35;;
68942;SDS011;60852;52.190;4.422;2023-02-26T11:03:45;2.24;;;1.60;;
68942;SDS011;60852;52.190;4.422;2023-02-26T11:06:18;2.33;;;1.66;;
68942;SDS011;60852;52.190;4.422;2023-02-26T11:08:49;2.39;;;1.72;;
68942;SDS011;60852;52.190;4.422;2023-02-26T11:14:17;2.25;;;1.61;;
68942;SDS011;60852;52.190;4.422;2023-02-26T11:16:57;2.36;;;1.72;;
68942;SDS011;60852;52.190;4.422;2023-02-26T11:19:27;2.78;;;2.04;;
68942;SDS011;60852;52.190;4.422;2023-02-26T11:21:57;2.48;;;1.82;;
68942;SDS011;60852;52.190;4.422;2023-02-26T11:27:13;2.27;;;1.67;;
68942;SDS011;60852;52.190;4.422;2023-02-26T11:29:42;2.48;;;1.84;;
68942;SDS011;60852;52.190;4.422;2023-02-26T11:32:16;2.23;;;1.66;;
68942;SDS011;60852;52.190;4.422;2023-02-26T11:34:47;2.70;;;2.02;;
68942;SDS011;60852;52.190;4.422;2023-02-26T11:37:22;2.44;;;1.89;;
68942;SDS011;60852;52.190;4.422;2023-02-26T11:39:56;2.10;;;1.63;;
68942;SDS011;60852;52.190;4.422;2023-02-26T11:42:23;1.90;;;1.46;;
68942;SDS011;60852;52.190;4.422;2023-02-26T11:44:51;2.17;;;1.63;;
68942;SDS011;60852;52.190;4.422;2023-02-26T11:47:25;2.47;;;1.81;;
68942;SDS011;60852;52.190;4.422;2023-02-26T11:49:55;1.88;;;1.39;;
68942;SDS011;60852;52.190;4.422;2023-02-26T11:52:34;1.99;;;1.51;;
68942;SDS011;60852;52.190;4.422;2023-02-26T11:55:14;1.81;;;1.37;;
68942;SDS011;60852;52.190;4.422;2023-02-26T11:57:44;1.66;;;1.27;;
68942;SDS011;60852;52.190;4.422;2023-02-26T12:00:19;1.69;;;1.30;;
68942;SDS011;60852;52.190;4.422;2023-02-26T12:02:49;1.46;;;1.13;;
68942;SDS011;60852;52.190;4.422;2023-02-26T12:05:16;1.56;;;1.20;;
68942;SDS011;60852;52.190;4.422;2023-02-26T12:07:42;1.78;;;1.37;;
68942;SDS011;60852;52.190;4.422;2023-02-26T12:10:17;2.30;;;1.72;;
68942;SDS011;60852;52.190;4.422;2023-02-26T12:13:14;2.14;;;1.59;;
68942;SDS011;60852;52.190;4.422;2023-02-26T12:24:28;2.03;;;1.54;;
68942;SDS011;60852;52.190;4.422;2023-02-26T12:27:18;2.44;;;1.85;;
68942;SDS011;60852;52.190;4.422;2023-02-26T12:30:19;2.43;;;1.84;;
68942;SDS011;60852;52.190;4.422;2023-02-26T12:33:02;1.99;;;1.51;;
68942;SDS011;60852;52.190;4.422;2023-02-26T12:35:55;2.00;;;1.51;;
68942;SDS011;60852;52.190;4.422;2023-02-26T12:38:39;2.11;;;1.59;;
68942;SDS011;60852;52.190;4.422;2023-02-26T12:44:22;2.29;;;1.73;;
68942;SDS011;60852;52.190;4.422;2023-02-26T12:49:45;1.83;;;1.44;;
68942;SDS011;60852;52.190;4.422;2023-02-26T13:00:17;2.18;;;1.77;;
68942;SDS011;60852;52.190;4.422;2023-02-26T13:08:19;2.18;;;1.82;;
68942;SDS011;60852;52.190;4.422;2023-02-26T13:11:06;1.78;;;1.48;;
68942;SDS011;60852;52.190;4.422;2023-02-26T13:22:05;1.91;;;1.56;;
68942;SDS011;60852;52.190;4.422;2023-02-26T13:27:18;2.07;;;1.68;;
68942;SDS011;60852;52.190;4.422;2023-02-26T13:29:53;2.16;;;1.76;;
68942;SDS011;60852;52.190;4.422;2023-02-26T13:32:41;2.20;;;1.83;;
68942;SDS011;60852;52.190;4.422;2023-02-26T13:35:20;2.08;;;1.80;;
68942;SDS011;60852;52.190;4.422;2023-02-26T13:37:59;1.70;;;1.46;;
68942;SDS011;60852;52.190;4.422;2023-02-26T13:46:41;2.36;;;1.85;;
68942;SDS011;60852;52.190;4.422;2023-02-26T13:52:26;1.99;;;1.62;;
68942;SDS011;60852;52.190;4.422;2023-02-26T13:54:54;2.06;;;1.68;;
68942;SDS011;60852;52.190;4.422;2023-02-26T14:00:21;2.24;;;1.86;;
68942;SDS011;60852;52.190;4.422;2023-02-26T14:10:44;3.09;;;2.78;;
68942;SDS011;60852;52.190;4.422;2023-02-26T14:18:49;2.10;;;1.91;;
68942;SDS011;60852;52.190;4.422;2023-02-26T14:21:26;1.89;;;1.70;;
68942;SDS011;60852;52.190;4.422;2023-02-26T14:24:01;1.81;;;1.62;;
68942;SDS011;60852;52.190;4.422;2023-02-26T14:26:32;2.70;;;2.31;;
68942;SDS011;60852;52.190;4.422;2023-02-26T14:31:46;1.66;;;1.40;;
68942;SDS011;60852;52.190;4.422;2023-02-26T14:34:24;1.68;;;1.40;;
68942;SDS011;60852;52.190;4.422;2023-02-26T14:37:00;1.84;;;1.53;;
68942;SDS011;60852;52.190;4.422;2023-02-26T14:39:41;1.86;;;1.52;;
68942;SDS011;60852;52.190;4.422;2023-02-26T14:42:15;1.98;;;1.59;;
68942;SDS011;60852;52.190;4.422;2023-02-26T14:44:47;1.86;;;1.48;;
68942;SDS011;60852;52.190;4.422;2023-02-26T14:47:17;2.02;;;1.58;;
68942;SDS011;60852;52.190;4.422;2023-02-26T14:49:47;1.96;;;1.51;;
68942;SDS011;60852;52.190;4.422;2023-02-26T14:52:27;1.83;;;1.44;;
68942;SDS011;60852;52.190;4.422;2023-02-26T14:55:17;2.04;;;1.64;;
68942;SDS011;60852;52.190;4.422;2023-02-26T14:58:16;1.59;;;1.26;;
68942;SDS011;60852;52.190;4.422;2023-02-26T15:03:51;2.06;;;1.60;;
68942;SDS011;60852;52.190;4.422;2023-02-26T15:07:07;2.67;;;2.11;;
68942;SDS011;60852;52.190;4.422;2023-02-26T15:09:57;1.97;;;1.54;;
68942;SDS011;60852;52.190;4.422;2023-02-26T15:15:54;1.73;;;1.34;;
68942;SDS011;60852;52.190;4.422;2023-02-26T15:18:46;1.94;;;1.51;;
68942;SDS011;60852;52.190;4.422;2023-02-26T15:24:09;2.23;;;1.69;;
68942;SDS011;60852;52.190;4.422;2023-02-26T15:26:44;2.28;;;1.74;;
68942;SDS011;60852;52.190;4.422;2023-02-26T15:29:13;2.09;;;1.63;;
68942;SDS011;60852;52.190;4.422;2023-02-26T15:31:46;1.92;;;1.52;;
68942;SDS011;60852;52.190;4.422;2023-02-26T15:34:18;1.90;;;1.53;;
68942;SDS011;60852;52.190;4.422;2023-02-26T15:36:45;1.90;;;1.56;;
68942;SDS011;60852;52.190;4.422;2023-02-26T15:39:17;1.75;;;1.44;;
68942;SDS011;60852;52.190;4.422;2023-02-26T15:41:45;2.07;;;1.72;;
68942;SDS011;60852;52.190;4.422;2023-02-26T15:44:13;2.22;;;1.85;;
68942;SDS011;60852;52.190;4.422;2023-02-26T15:46:44;1.79;;;1.49;;
68942;SDS011;60852;52.190;4.422;2023-02-26T15:49:32;1.68;;;1.39;;
68942;SDS011;60852;52.190;4.422;2023-02-26T15:52:02;1.78;;;1.47;;
68942;SDS011;60852;52.190;4.422;2023-02-26T15:54:32;2.05;;;1.69;;
68942;SDS011;60852;52.190;4.422;2023-02-26T15:57:05;2.37;;;1.93;;
68942;SDS011;60852;52.190;4.422;2023-02-26T15:59:33;2.93;;;2.40;;
68942;SDS011;60852;52.190;4.422;2023-02-26T16:02:15;1.98;;;1.64;;
68942;SDS011;60852;52.190;4.422;2023-02-26T16:04:47;1.71;;;1.44;;
68942;SDS011;60852;52.190;4.422;2023-02-26T16:07:12;1.53;;;1.30;;
68942;SDS011;60852;52.190;4.422;2023-02-26T16:09:40;2.13;;;1.79;;
68942;SDS011;60852;52.190;4.422;2023-02-26T16:12:12;2.14;;;1.77;;
68942;SDS011;60852;52.190;4.422;2023-02-26T16:14:47;2.39;;;1.95;;
68942;SDS011;60852;52.190;4.422;2023-02-26T16:17:27;2.02;;;1.64;;
68942;SDS011;60852;52.190;4.422;2023-02-26T16:19:57;2.55;;;2.02;;
68942;SDS011;60852;52.190;4.422;2023-02-26T16:22:35;2.29;;;1.85;;
68942;SDS011;60852;52.190;4.422;2023-02-26T16:25:14;2.35;;;1.95;;
68942;SDS011;60852;52.190;4.422;2023-02-26T16:27:47;3.36;;;2.88;;
68942;SDS011;60852;52.190;4.422;2023-02-26T16:30:29;3.24;;;2.84;;
68942;SDS011;60852;52.190;4.422;2023-02-26T16:33:00;2.82;;;2.55;;
68942;SDS011;60852;52.190;4.422;2023-02-26T16:35:30;1.93;;;1.73;;
68942;SDS011;60852;52.190;4.422;2023-02-26T16:37:59;1.90;;;1.69;;
68942;SDS011;60852;52.190;4.422;2023-02-26T16:40:35;4.27;;;3.70;;
68942;SDS011;60852;52.190;4.422;2023-02-26T16:43:14;3.64;;;3.23;;
68942;SDS011;60852;52.190;4.422;2023-02-26T16:45:58;2.82;;;2.53;;
68942;SDS011;60852;52.190;4.422;2023-02-26T16:48:29;2.81;;;2.50;;
68942;SDS011;60852;52.190;4.422;2023-02-26T16:53:46;2.42;;;2.17;;
68942;SDS011;60852;52.190;4.422;2023-02-26T16:56:18;2.42;;;2.17;;
68942;SDS011;60852;52.190;4.422;2023-02-26T16:59:34;2.39;;;2.10;;
68942;SDS011;60852;52.190;4.422;2023-02-26T17:01:55;2.83;;;2.44;;
68942;SDS011;60852;52.190;4.422;2023-02-26T17:04:28;3.24;;;2.88;;
68942;SDS011;60852;52.190;4.422;2023-02-26T17:06:57;3.11;;;2.76;;
68942;SDS011;60852;52.190;4.422;2023-02-26T17:09:24;2.92;;;2.65;;
68942;SDS011;60852;52.190;4.422;2023-02-26T17:12:04;3.34;;;3.08;;
68942;SDS011;60852;52.190;4.422;2023-02-26T17:14:55;2.97;;;2.81;;
68942;SDS011;60852;52.190;4.422;2023-02-26T17:17:25;3.42;;;3.28;;
68942;SDS011;60852;52.190;4.422;2023-02-26T17:19:51;2.90;;;2.74;;
68942;SDS011;60852;52.190;4.422;2023-02-26T17:22:18;2.72;;;2.53;;
68942;SDS011;60852;52.190;4.422;2023-02-26T17:24:50;2.80;;;2.58;;
68942;SDS011;60852;52.190;4.422;2023-02-26T17:27:37;2.84;;;2.65;;
68942;SDS011;60852;52.190;4.422;2023-02-26T17:30:03;3.02;;;2.79;;
68942;SDS011;60852;52.190;4.422;2023-02-26T17:32:30;2.91;;;2.69;;
68942;SDS011;60852;52.190;4.422;2023-02-26T17:34:56;3.65;;;3.34;;
68942;SDS011;60852;52.190;4.422;2023-02-26T17:37:23;3.98;;;3.78;;
68942;SDS011;60852;52.190;4.422;2023-02-26T17:39:57;3.68;;;3.58;;
68942;SDS011;60852;52.190;4.422;2023-02-26T17:42:24;3.64;;;3.56;;